createdAt,value
2023-05-13T00:00:29.725Z,14.69
2023-05-13T00:02:57.796Z,14.67
2023-05-13T00:05:25.772Z,14.66
2023-05-13T00:07:53.739Z,14.64
2023-05-13T00:10:21.833Z,14.64
2023-05-13T00:12:51.432Z,14.64
2023-05-13T00:15:19.549Z,14.62
2023-05-13T00:17:47.591Z,14.61
2023-05-13T00:20:15.510Z,14.60
2023-05-13T00:22:43.502Z,14.60
2023-05-13T00:25:11.427Z,14.59
2023-05-13T00:27:39.588Z,14.58
2023-05-13T00:30:10.229Z,14.59
2023-05-13T00:32:38.256Z,14.57
2023-05-13T00:35:07.072Z,14.57
2023-05-13T00:37:35.059Z,14.56
2023-05-13T00:40:03.521Z,14.56
2023-05-13T00:42:31.539Z,14.54
2023-05-13T00:44:59.406Z,14.54
2023-05-13T00:47:28.915Z,14.56
2023-05-13T00:49:56.904Z,14.53
2023-05-13T00:52:24.798Z,14.52
2023-05-13T00:54:52.723Z,14.51
2023-05-13T00:57:21.171Z,14.50
2023-05-13T00:59:49.278Z,14.49
2023-05-13T01:02:25.026Z,14.50
2023-05-13T01:05:14.466Z,14.48
2023-05-13T01:07:50.906Z,14.46
2023-05-13T01:10:25.409Z,14.46
2023-05-13T01:12:57.953Z,14.45
2023-05-13T01:15:27.391Z,14.41
2023-05-13T01:18:01.456Z,14.43
2023-05-13T01:20:32.568Z,14.42
2023-05-13T01:23:04.050Z,14.41
2023-05-13T01:25:32.251Z,14.38
2023-05-13T01:28:01.986Z,14.38
2023-05-13T01:30:31.192Z,14.37
2023-05-13T01:33:00.230Z,14.37
2023-05-13T01:35:29.248Z,14.35
2023-05-13T01:37:59.147Z,14.36
2023-05-13T01:40:32.650Z,14.35
2023-05-13T01:43:05.867Z,14.32
2023-05-13T01:45:34.817Z,14.32
2023-05-13T01:48:02.947Z,14.32
2023-05-13T01:50:40.585Z,14.31
2023-05-13T01:53:09.136Z,14.31
2023-05-13T01:55:40.462Z,14.32
2023-05-13T01:58:08.830Z,14.31
2023-05-13T02:00:36.740Z,14.30
2023-05-13T02:03:04.618Z,14.31
2023-05-13T02:05:33.187Z,14.30
2023-05-13T02:08:05.144Z,14.02
2023-05-13T02:10:33.234Z,14.25
2023-05-13T02:13:03.917Z,14.30
2023-05-13T02:15:32.600Z,14.29
2023-05-13T02:18:00.452Z,14.28
2023-05-13T02:20:28.450Z,14.29
2023-05-13T02:22:56.593Z,14.28
2023-05-13T02:25:24.490Z,14.29
2023-05-13T02:27:52.644Z,14.28
2023-05-13T02:30:26.820Z,14.30
2023-05-13T02:32:54.935Z,14.28
2023-05-13T02:35:24.491Z,14.28
2023-05-13T02:37:52.481Z,14.27
2023-05-13T02:40:20.923Z,14.26
2023-05-13T02:42:49.932Z,14.26
2023-05-13T02:45:24.296Z,14.26
2023-05-13T02:47:56.197Z,14.23
2023-05-13T02:50:24.425Z,14.22
2023-05-13T02:52:52.797Z,14.22
2023-05-13T02:55:20.713Z,14.21
2023-05-13T02:57:48.566Z,14.21
2023-05-13T03:00:17.243Z,14.21
2023-05-13T03:02:46.537Z,14.22
2023-05-13T03:05:14.806Z,14.20
2023-05-13T03:07:43.323Z,14.19
2023-05-13T03:10:11.369Z,14.20
2023-05-13T03:12:39.144Z,14.19
2023-05-13T03:15:08.077Z,14.19
2023-05-13T03:17:36.296Z,14.17
2023-05-13T03:20:06.635Z,14.19
2023-05-13T03:22:34.695Z,14.17
2023-05-13T03:25:02.563Z,14.16
2023-05-13T03:27:36.517Z,14.14
2023-05-13T03:30:05.108Z,14.13
2023-05-13T03:32:33.869Z,14.13
2023-05-13T03:35:02.150Z,14.12
2023-05-13T03:37:32.861Z,14.12
2023-05-13T03:40:01.766Z,14.10
2023-05-13T03:42:30.680Z,14.09
2023-05-13T03:45:01.840Z,14.06
2023-05-13T03:47:29.796Z,14.07
2023-05-13T03:50:01.697Z,14.05
2023-05-13T03:52:37.029Z,14.06
2023-05-13T03:55:05.383Z,14.06
2023-05-13T03:57:34.766Z,14.03
2023-05-13T04:00:03.539Z,14.03
2023-05-13T04:02:42.620Z,14.02
2023-05-13T04:05:13.793Z,14.01
2023-05-13T04:07:43.211Z,14.02
2023-05-13T04:10:14.616Z,14.01
2023-05-13T04:12:43.533Z,13.98
2023-05-13T04:15:12.037Z,14.00
2023-05-13T04:17:39.857Z,14.00
2023-05-13T04:20:09.103Z,14.00
2023-05-13T04:22:36.939Z,13.99
2023-05-13T04:25:07.021Z,14.01
2023-05-13T04:27:35.498Z,13.99
2023-05-13T04:30:10.014Z,13.99
2023-05-13T04:32:39.736Z,13.99
2023-05-13T04:35:08.377Z,14.00
2023-05-13T04:37:36.934Z,14.00
2023-05-13T04:40:09.922Z,14.02
2023-05-13T04:42:38.332Z,14.01
2023-05-13T04:45:07.148Z,14.02
2023-05-13T04:47:35.439Z,14.03
2023-05-13T04:50:03.505Z,14.05
2023-05-13T04:52:33.132Z,14.04
2023-05-13T04:55:00.985Z,14.06
2023-05-13T04:57:31.323Z,14.08
2023-05-13T04:59:59.227Z,14.08
2023-05-13T05:02:29.922Z,14.10
2023-05-13T05:04:58.355Z,14.14
2023-05-13T05:07:26.737Z,14.19
2023-05-13T05:09:54.572Z,14.24
2023-05-13T05:12:22.459Z,14.30
2023-05-13T05:14:51.682Z,14.39
2023-05-13T05:17:19.611Z,14.45
2023-05-13T05:19:47.852Z,14.55
2023-05-13T05:22:15.763Z,14.63
2023-05-13T05:24:43.751Z,14.68
2023-05-13T05:27:11.553Z,14.77
2023-05-13T05:29:39.380Z,14.84
2023-05-13T05:32:09.403Z,14.93
2023-05-13T05:34:37.439Z,14.99
2023-05-13T05:37:05.816Z,15.07
2023-05-13T05:39:35.291Z,15.17
2023-05-13T05:42:03.299Z,15.27
2023-05-13T05:44:31.144Z,15.38
2023-05-13T05:46:59.019Z,15.48
2023-05-13T05:49:28.683Z,15.61
2023-05-13T05:51:57.109Z,15.71
2023-05-13T05:54:26.108Z,15.84
2023-05-13T05:56:54.009Z,15.97
2023-05-13T05:59:22.294Z,16.08
2023-05-13T06:01:51.489Z,16.21
2023-05-13T06:04:19.320Z,16.33
2023-05-13T06:06:48.691Z,16.48
2023-05-13T06:09:17.071Z,16.58
2023-05-13T06:11:44.853Z,16.69
2023-05-13T06:14:12.625Z,16.79
2023-05-13T06:16:40.433Z,16.87
2023-05-13T06:19:08.281Z,16.96
2023-05-13T06:21:37.169Z,17.02
2023-05-13T06:24:06.790Z,17.09
2023-05-13T06:26:34.573Z,17.12
2023-05-13T06:29:02.570Z,17.15
2023-05-13T06:31:30.595Z,17.17
2023-05-13T06:33:58.428Z,17.18
2023-05-13T06:36:26.296Z,17.19
2023-05-13T06:38:54.869Z,17.20
2023-05-13T06:41:25.981Z,17.21
2023-05-13T06:43:57.357Z,17.19
2023-05-13T06:46:29.689Z,17.16
2023-05-13T06:48:58.302Z,17.19
2023-05-13T06:51:27.603Z,17.20
2023-05-13T06:53:55.803Z,17.21
2023-05-13T06:56:25.921Z,17.20
2023-05-13T06:58:53.965Z,17.21
2023-05-13T07:01:21.832Z,17.22
2023-05-13T07:03:49.948Z,17.24
2023-05-13T07:06:17.751Z,17.28
2023-05-13T07:08:45.622Z,17.32
2023-05-13T07:11:13.475Z,17.43
2023-05-13T07:13:42.704Z,17.54
2023-05-13T07:16:10.612Z,17.63
2023-05-13T07:18:38.695Z,17.77
2023-05-13T07:21:06.975Z,17.91
2023-05-13T07:23:35.778Z,18.07
2023-05-13T07:26:04.016Z,18.21
2023-05-13T07:28:31.963Z,18.36
2023-05-13T07:31:01.337Z,18.50
2023-05-13T07:33:29.636Z,18.59
2023-05-13T07:35:57.437Z,18.69
2023-05-13T07:38:25.319Z,18.79
2023-05-13T07:40:53.166Z,18.88
2023-05-13T07:43:23.980Z,18.97
2023-05-13T07:45:52.144Z,19.06
2023-05-13T07:48:21.361Z,19.15
2023-05-13T07:50:49.309Z,19.20
2023-05-13T07:53:19.101Z,19.25
2023-05-13T07:55:47.760Z,19.28
2023-05-13T07:58:15.655Z,19.29
2023-05-13T08:00:43.516Z,19.30
2023-05-13T08:03:12.389Z,19.28
2023-05-13T08:05:41.755Z,19.26
2023-05-13T08:08:09.577Z,19.21
2023-05-13T08:10:37.472Z,19.16
2023-05-13T08:13:05.332Z,19.11
2023-05-13T08:15:33.198Z,19.06
2023-05-13T08:18:01.069Z,19.02
2023-05-13T08:20:30.131Z,18.99
2023-05-13T08:23:01.180Z,18.98
2023-05-13T08:25:29.029Z,18.92
2023-05-13T08:27:56.884Z,18.88
2023-05-13T08:30:24.772Z,18.86
2023-05-13T08:32:52.709Z,18.82
2023-05-13T08:35:21.763Z,18.80
2023-05-13T08:37:49.731Z,18.76
2023-05-13T08:40:19.139Z,18.75
2023-05-13T08:42:50.080Z,18.72
2023-05-13T08:45:22.242Z,18.70
2023-05-13T08:47:56.812Z,18.65
2023-05-13T08:50:26.077Z,18.65
2023-05-13T08:52:54.622Z,18.67
2023-05-13T08:55:24.524Z,18.72
2023-05-13T08:57:53.270Z,18.74
2023-05-13T09:00:21.856Z,18.79
2023-05-13T09:02:50.632Z,18.88
2023-05-13T09:05:20.321Z,18.96
2023-05-13T09:07:48.660Z,19.06
2023-05-13T09:10:18.620Z,19.18
2023-05-13T09:12:49.928Z,19.32
2023-05-13T09:15:20.333Z,19.44
2023-05-13T09:17:52.452Z,19.58
2023-05-13T09:20:21.582Z,19.69
2023-05-13T09:22:51.041Z,19.85
2023-05-13T09:25:20.846Z,19.99
2023-05-13T09:27:52.704Z,20.14
2023-05-13T09:30:21.830Z,20.24
2023-05-13T09:33:08.100Z,20.39
2023-05-13T09:35:37.148Z,20.52
2023-05-13T09:38:14.418Z,20.67
2023-05-13T09:40:42.728Z,20.76
2023-05-13T09:43:12.137Z,20.88
2023-05-13T09:45:40.109Z,20.97
2023-05-13T09:48:09.616Z,21.09
2023-05-13T09:50:48.027Z,21.21
2023-05-13T09:53:16.042Z,21.27
2023-05-13T09:55:47.331Z,21.38
2023-05-13T09:58:17.020Z,21.41
2023-05-13T10:00:45.572Z,21.47
2023-05-13T10:03:14.114Z,21.50
2023-05-13T10:05:43.067Z,21.55
2023-05-13T10:08:13.047Z,21.57
2023-05-13T10:10:45.777Z,21.58
2023-05-13T10:13:19.575Z,21.62
2023-05-13T10:15:51.320Z,21.62
2023-05-13T10:18:20.410Z,21.61
2023-05-13T10:20:53.097Z,21.64
2023-05-13T10:23:22.442Z,21.63
2023-05-13T10:25:51.910Z,21.68
2023-05-13T10:28:21.493Z,21.68
2023-05-13T10:30:51.127Z,21.72
2023-05-13T10:33:19.491Z,21.70
2023-05-13T10:35:57.964Z,21.73
2023-05-13T10:38:39.021Z,21.72
2023-05-13T10:41:12.970Z,21.74
2023-05-13T10:43:42.628Z,21.74
2023-05-13T10:46:13.782Z,21.76
2023-05-13T10:48:43.274Z,21.76
2023-05-13T10:51:15.448Z,21.79
2023-05-13T10:53:49.334Z,21.81
2023-05-13T10:56:20.718Z,21.83
2023-05-13T10:59:00.439Z,21.86
2023-05-13T11:01:30.070Z,21.91
2023-05-13T11:04:00.118Z,21.97
2023-05-13T11:06:33.022Z,22.02
2023-05-13T11:09:01.095Z,22.04
2023-05-13T11:11:33.184Z,22.08
2023-05-13T11:14:08.499Z,21.74
2023-05-13T11:16:37.317Z,22.02
2023-05-13T11:19:10.550Z,22.09
2023-05-13T11:21:41.155Z,22.09
2023-05-13T11:24:09.473Z,22.13
2023-05-13T11:26:47.961Z,22.18
2023-05-13T11:29:28.982Z,22.17
2023-05-13T11:32:00.240Z,22.14
2023-05-13T11:34:29.236Z,22.12
2023-05-13T11:37:08.414Z,22.19
2023-05-13T11:39:36.616Z,22.20
2023-05-13T11:42:08.290Z,22.24
2023-05-13T11:44:45.259Z,22.21
2023-05-13T11:47:13.280Z,22.25
2023-05-13T11:49:42.571Z,22.31
2023-05-13T11:52:11.824Z,22.34
2023-05-13T11:54:44.633Z,22.38
2023-05-13T11:57:19.604Z,22.39
2023-05-13T11:59:53.192Z,22.43
2023-05-13T12:02:22.994Z,22.43
2023-05-13T12:04:52.581Z,22.46
2023-05-13T12:07:22.593Z,22.46
2023-05-13T12:09:50.785Z,22.49
2023-05-13T12:12:19.829Z,22.51
2023-05-13T12:14:50.243Z,22.52
2023-05-13T12:17:20.370Z,22.54
2023-05-13T12:20:15.665Z,22.43
2023-05-13T12:22:54.775Z,22.43
2023-05-13T12:25:42.376Z,22.38
2023-05-13T12:28:13.086Z,22.35
2023-05-13T12:30:42.965Z,22.34
2023-05-13T12:33:16.585Z,22.30
2023-05-13T12:35:44.671Z,22.22
2023-05-13T12:38:18.056Z,22.27
2023-05-13T12:40:46.819Z,22.24
2023-05-13T12:43:15.376Z,22.24
2023-05-13T12:45:45.164Z,22.29
2023-05-13T12:48:15.405Z,22.31
2023-05-13T12:50:43.267Z,22.33
2023-05-13T12:53:11.091Z,22.35
2023-05-13T12:55:40.236Z,22.38
2023-05-13T12:58:10.983Z,22.40
2023-05-13T13:00:39.083Z,22.41
2023-05-13T13:03:08.098Z,22.41
2023-05-13T13:05:37.822Z,22.44
2023-05-13T13:08:06.274Z,22.44
2023-05-13T13:10:34.806Z,22.46
2023-05-13T13:13:02.696Z,22.47
2023-05-13T13:15:30.741Z,22.49
2023-05-13T13:17:58.721Z,22.50
2023-05-13T13:20:26.612Z,22.51
2023-05-13T13:22:55.848Z,22.52
2023-05-13T13:25:24.058Z,22.52
2023-05-13T13:27:52.112Z,22.49
2023-05-13T13:30:19.956Z,22.45
2023-05-13T13:32:47.777Z,22.44
2023-05-13T13:35:15.796Z,22.41
2023-05-13T13:37:43.608Z,22.38
2023-05-13T13:40:14.258Z,22.35
2023-05-13T13:42:44.463Z,22.28
2023-05-13T13:45:13.510Z,22.23
2023-05-13T13:47:41.709Z,22.19
2023-05-13T13:50:11.134Z,22.15
2023-05-13T13:52:38.951Z,22.10
2023-05-13T13:55:07.917Z,22.07
2023-05-13T13:57:37.063Z,22.05
2023-05-13T14:00:05.994Z,22.01
2023-05-13T14:02:34.050Z,21.97
2023-05-13T14:05:01.949Z,21.96
2023-05-13T14:07:29.825Z,21.94
2023-05-13T14:10:00.272Z,21.89
2023-05-13T14:12:28.934Z,21.89
2023-05-13T14:14:58.139Z,21.90
2023-05-13T14:17:26.215Z,21.88
2023-05-13T14:19:55.461Z,21.87
2023-05-13T14:22:23.815Z,21.87
2023-05-13T14:24:52.925Z,21.88
2023-05-13T14:27:21.550Z,21.86
2023-05-13T14:29:49.873Z,21.85
2023-05-13T14:32:19.199Z,21.86
2023-05-13T14:34:47.052Z,21.84
2023-05-13T14:37:14.978Z,21.84
2023-05-13T14:39:42.766Z,21.83
2023-05-13T14:42:11.567Z,21.83
2023-05-13T14:44:41.445Z,21.83
2023-05-13T14:47:09.745Z,21.82
2023-05-13T14:49:38.998Z,21.83
2023-05-13T14:52:06.938Z,21.81
2023-05-13T14:54:37.829Z,21.81
2023-05-13T14:57:07.449Z,21.81
2023-05-13T14:59:35.558Z,21.80
2023-05-13T15:02:04.100Z,21.80
2023-05-13T15:04:31.981Z,21.80
2023-05-13T15:07:03.397Z,21.83
2023-05-13T15:09:31.347Z,21.80
2023-05-13T15:11:59.129Z,21.83
2023-05-13T15:14:27.102Z,21.85
2023-05-13T15:16:54.958Z,21.85
2023-05-13T15:19:22.829Z,21.87
2023-05-13T15:21:50.842Z,21.86
2023-05-13T15:24:20.095Z,21.87
2023-05-13T15:26:49.638Z,21.81
2023-05-13T15:29:17.567Z,21.74
2023-05-13T15:31:45.536Z,21.66
2023-05-13T15:34:13.370Z,21.57
2023-05-13T15:36:41.177Z,21.46
2023-05-13T15:39:10.935Z,21.35
2023-05-13T15:41:40.402Z,21.22
2023-05-13T15:44:08.212Z,21.05
2023-05-13T15:46:36.234Z,20.87
2023-05-13T15:49:04.224Z,20.68
2023-05-13T15:51:32.055Z,20.52
2023-05-13T15:54:00.603Z,20.35
2023-05-13T15:56:28.442Z,20.22
2023-05-13T15:58:57.562Z,20.10
2023-05-13T16:01:25.402Z,19.96
2023-05-13T16:03:53.265Z,19.84
2023-05-13T16:06:21.150Z,19.77
2023-05-13T16:08:49.388Z,19.69
2023-05-13T16:11:17.177Z,19.60
2023-05-13T16:13:44.985Z,19.56
2023-05-13T16:16:14.242Z,19.54
2023-05-13T16:18:43.195Z,19.49
2023-05-13T16:21:11.027Z,19.48
2023-05-13T16:23:38.899Z,19.48
2023-05-13T16:26:06.805Z,19.48
2023-05-13T16:28:34.658Z,19.49
2023-05-13T16:31:02.658Z,19.51
2023-05-13T16:33:32.910Z,19.55
2023-05-13T16:36:01.147Z,19.53
2023-05-13T16:38:30.498Z,19.55
2023-05-13T16:40:58.416Z,19.56
2023-05-13T16:43:26.202Z,19.57
2023-05-13T16:45:54.186Z,19.58
2023-05-13T16:48:22.086Z,19.59
2023-05-13T16:50:51.968Z,19.61
2023-05-13T16:53:22.232Z,19.60
2023-05-13T16:55:50.597Z,19.61
2023-05-13T16:58:18.505Z,19.62
2023-05-13T17:00:46.475Z,19.62
2023-05-13T17:03:14.482Z,19.62
2023-05-13T17:05:42.407Z,19.62
2023-05-13T17:08:11.647Z,19.65
2023-05-13T17:10:39.429Z,19.62
2023-05-13T17:13:07.326Z,19.61
2023-05-13T17:15:35.366Z,19.61
2023-05-13T17:18:03.252Z,19.60
2023-05-13T17:20:31.236Z,19.59
2023-05-13T17:22:59.392Z,19.58
2023-05-13T17:25:28.635Z,19.58
2023-05-13T17:27:56.474Z,19.56
2023-05-13T17:30:24.483Z,19.55
2023-05-13T17:32:52.412Z,19.54
2023-05-13T17:35:20.289Z,19.53
2023-05-13T17:37:48.087Z,19.53
2023-05-13T17:40:15.988Z,19.53
2023-05-13T17:42:45.255Z,19.54
2023-05-13T17:45:13.311Z,19.52
2023-05-13T17:47:41.353Z,19.52
2023-05-13T17:50:10.086Z,19.52
2023-05-13T17:52:37.932Z,19.50
2023-05-13T17:55:07.066Z,19.51
2023-05-13T17:57:34.897Z,19.50
2023-05-13T18:00:06.793Z,19.51
2023-05-13T18:02:36.197Z,19.47
2023-05-13T18:05:04.264Z,19.48
2023-05-13T18:07:32.204Z,19.47
2023-05-13T18:10:00.115Z,19.47
2023-05-13T18:12:28.032Z,19.46
2023-05-13T18:14:55.896Z,19.45
2023-05-13T18:17:25.435Z,19.47
2023-05-13T18:19:53.302Z,19.44
2023-05-13T18:22:21.182Z,19.43
2023-05-13T18:24:48.946Z,19.44
2023-05-13T18:27:16.869Z,19.43
2023-05-13T18:29:44.748Z,19.43
2023-05-13T18:32:12.555Z,19.43
2023-05-13T18:34:41.752Z,19.44
2023-05-13T18:37:09.600Z,19.42
2023-05-13T18:39:37.407Z,19.41
2023-05-13T18:42:05.725Z,19.40
2023-05-13T18:44:33.813Z,19.39
2023-05-13T18:47:01.791Z,19.38
2023-05-13T18:49:29.601Z,19.38
2023-05-13T18:51:58.932Z,19.38
2023-05-13T18:54:29.063Z,19.35
2023-05-13T18:56:57.172Z,19.36
2023-05-13T18:59:25.018Z,19.32
2023-05-13T19:01:52.984Z,19.31
2023-05-13T19:04:21.386Z,19.30
2023-05-13T19:06:49.340Z,19.28
2023-05-13T19:09:18.715Z,19.28
2023-05-13T19:11:46.526Z,19.25
2023-05-13T19:14:14.389Z,19.23
2023-05-13T19:16:42.244Z,19.20
2023-05-13T19:19:10.266Z,19.19
2023-05-13T19:21:38.143Z,19.17
2023-05-13T19:24:06.260Z,19.15
2023-05-13T19:26:36.051Z,19.15
2023-05-13T19:29:04.012Z,19.11
2023-05-13T19:31:32.390Z,19.08
2023-05-13T19:34:01.436Z,19.06
2023-05-13T19:36:29.558Z,19.04
2023-05-13T19:38:57.623Z,19.01
2023-05-13T19:41:26.146Z,18.98
2023-05-13T19:43:55.391Z,18.97
2023-05-13T19:46:23.418Z,18.92
2023-05-13T19:48:51.340Z,18.89
2023-05-13T19:51:19.283Z,18.86
2023-05-13T19:53:47.253Z,18.83
2023-05-13T19:56:15.126Z,18.81
2023-05-13T19:58:43.246Z,18.76
2023-05-13T20:01:14.778Z,18.74
2023-05-13T20:03:42.921Z,18.68
2023-05-13T20:06:11.067Z,18.67
2023-05-13T20:08:39.679Z,18.65
2023-05-13T20:11:07.582Z,18.61
2023-05-13T20:13:35.805Z,18.57
2023-05-13T20:16:03.862Z,18.56
2023-05-13T20:18:33.333Z,18.55
2023-05-13T20:21:01.923Z,18.49
2023-05-13T20:23:29.721Z,18.47
2023-05-13T20:25:58.216Z,18.43
2023-05-13T20:28:26.326Z,18.39
2023-05-13T20:30:54.379Z,18.39
2023-05-13T20:33:22.322Z,18.34
2023-05-13T20:35:51.575Z,18.33
2023-05-13T20:38:19.547Z,18.27
2023-05-13T20:40:47.967Z,18.26
2023-05-13T20:43:16.811Z,18.23
2023-05-13T20:45:44.844Z,18.19
2023-05-13T20:48:13.771Z,18.17
2023-05-13T20:50:41.923Z,18.13
2023-05-13T20:53:11.239Z,18.13
2023-05-13T20:55:39.268Z,18.07
2023-05-13T20:58:07.165Z,18.05
2023-05-13T21:00:35.079Z,18.01
2023-05-13T21:03:03.306Z,17.99
2023-05-13T21:05:32.181Z,17.96
2023-05-13T21:08:00.152Z,17.92
2023-05-13T21:10:29.483Z,17.91
2023-05-13T21:12:57.378Z,17.86
2023-05-13T21:15:25.387Z,17.83
2023-05-13T21:17:53.293Z,17.81
2023-05-13T21:20:21.757Z,17.76
2023-05-13T21:22:49.914Z,17.73
2023-05-13T21:25:17.912Z,17.68
2023-05-13T21:27:47.252Z,17.67
2023-05-13T21:30:15.772Z,17.63
2023-05-13T21:32:43.674Z,17.60
2023-05-13T21:35:11.631Z,17.58
2023-05-13T21:37:39.508Z,17.55
2023-05-13T21:40:08.998Z,17.54
2023-05-13T21:42:36.995Z,17.52
2023-05-13T21:45:07.309Z,17.52
2023-05-13T21:47:35.270Z,17.47
2023-05-13T21:50:03.262Z,17.47
2023-05-13T21:52:31.229Z,17.45
2023-05-13T21:54:59.039Z,17.44
2023-05-13T21:57:27.082Z,17.42
2023-05-13T21:59:55.017Z,17.40
2023-05-13T22:02:24.298Z,17.41
2023-05-13T22:04:52.219Z,17.36
2023-05-13T22:07:20.119Z,17.35
2023-05-13T22:09:49.745Z,17.33
2023-05-13T22:12:18.521Z,17.30
2023-05-13T22:14:46.477Z,17.27
2023-05-13T22:17:14.621Z,17.26
2023-05-13T22:19:43.991Z,17.25
2023-05-13T22:22:11.968Z,17.22
2023-05-13T22:24:39.795Z,17.20
2023-05-13T22:27:07.872Z,17.19
2023-05-13T22:29:35.824Z,17.18
2023-05-13T22:32:03.896Z,17.17
2023-05-13T22:34:31.965Z,17.16
2023-05-13T22:37:02.555Z,17.18
2023-05-13T22:39:30.619Z,17.15
2023-05-13T22:41:58.523Z,17.14
2023-05-13T22:44:26.371Z,17.14
2023-05-13T22:46:54.270Z,17.14
2023-05-13T22:49:22.210Z,17.11
2023-05-13T22:51:50.154Z,17.08
2023-05-13T22:54:19.402Z,17.08
2023-05-13T22:56:47.284Z,17.04
2023-05-13T22:59:15.089Z,17.00
2023-05-13T23:01:42.961Z,16.97
2023-05-13T23:04:11.015Z,16.95
2023-05-13T23:06:38.959Z,16.95
2023-05-13T23:09:07.677Z,16.93
2023-05-13T23:11:37.510Z,16.93
2023-05-13T23:14:05.394Z,16.91
2023-05-13T23:16:33.406Z,16.89
2023-05-13T23:19:02.216Z,16.87
2023-05-13T23:21:30.148Z,16.85
2023-05-13T23:23:58.412Z,16.83
2023-05-13T23:26:26.318Z,16.81
2023-05-13T23:28:55.520Z,16.81
2023-05-13T23:31:23.390Z,16.77
2023-05-13T23:33:51.256Z,16.76
2023-05-13T23:36:19.115Z,16.73
2023-05-13T23:38:47.056Z,16.72
2023-05-13T23:41:14.892Z,16.71
2023-05-13T23:43:42.716Z,16.71
2023-05-13T23:46:12.007Z,16.71
2023-05-13T23:48:40.291Z,16.68
2023-05-13T23:51:08.170Z,16.67
2023-05-13T23:53:36.054Z,16.64
2023-05-13T23:56:03.978Z,16.62
2023-05-13T23:58:31.835Z,16.60
